LAKE COUNTY AMOS NETWORK
                             Weekly Meteorological Summary
                             Station: Bell Hill Road (West)

            MaxT        MinT         Avg   Max   Min     W  I  N  D     Daily   Seas   Total Total  GDDs ContHrs Hours Mildew    Min
             Air  Time   Air  Time DewPt    RH    RH   Avg   Max  Gust Precip Precip   Solar   ETo  Base    CanT  CanT Stress    Bat
   Date        F Occur     F Occur     F     %     %   mph   mph   Dir     In  7/1-> Cal/cm2    In   50F  70-85F  >95F    Pts  Volts
------------------------------------------------------------------------------------------------------------------------------------
  09/10/18  91.3  1419  43.9   658  39.6    77    11   3.3  19.2     N   0.00   0.00     597  0.22  17.4     3.3   0.0      0   12.2
  09/11/18  83.3  1453  44.9   554  37.5    68    12   4.4  16.2    SW   0.00   0.00     593  0.22  14.3     8.9   0.0     20   12.2
  09/12/18  73.5  1410  42.5   647  42.7    86    29   3.7  15.0   SSW   0.00   0.00     489  0.16   9.6     4.3   0.0     10   12.2
  09/13/18  74.8  1553  44.9   711  42.4    89    19   2.6  14.5   WSW   0.00   0.00     583  0.18  10.9     6.1   0.0     30   12.2
  09/14/18  79.3  1614  40.6   623  39.6    92    20   2.4  13.7    SW   0.00   0.00     570  0.18  11.2     6.8   0.0     50   12.2
  09/15/18  73.3  1527  47.2  2340  40.6    83    24   3.8  14.7   WSW   0.00   0.00     577  0.19  10.2     4.3   0.0     40   12.2
  09/16/18  79.4  1641  40.1   645  41.1    92    20   2.7  13.3    SW   0.00   0.00     569  0.17  10.4     6.4   0.0     60   12.2

                                                                                                                                        
  Avg/Tot   79.3        43.4        40.5    84    19   3.3  15.2         0.00            568  1.32  83.9    40     0.0

===================================================================================================================================================

                           LAKE COUNTY AMOS NETWORK
                  Bell Hill Road (West) - Hourly Observations

                  Air   Wet   Dew              Wind   Max    Avg       Daily  Daily Daily
                 Temp  Bulb    Pt    RH  Wind Speed  Wind  Solar  Prec  Prec   MinT  MaxT
    Date   Time     F     F     F     %   Dir   mph  Gust   W/m2    In Today      F     F
-----------------------------------------------------------------------------------------
  09/17/18 0900  59.2  53.3  47.6    65     S   1.0   3.8    297  0.00  0.00   41.7  59.2
  09/17/18 0800  47.8  46.2  43.7    86     S   2.5   3.4     87  0.00  0.00   41.7  49.2
  09/17/18 0700  41.8  41.1  39.8    92     S   2.8   3.9      1  0.00  0.00   41.8  49.2
  09/17/18 0600  42.6  41.8  40.3    92   SSW   2.9   3.8      0  0.00  0.00   42.5  49.2
  09/17/18 0500  42.9  41.9  40.3    91   SSW   2.6   3.8      0  0.00  0.00   42.9  49.2
  09/17/18 0400  43.9  42.9  41.1    90     S   3.0   4.1      0  0.00  0.00   43.8  49.2
  09/17/18 0300  45.1  43.6  41.3    87   SSW   2.8   3.9      0  0.00  0.00   44.7  49.2
  09/17/18 0200  46.1  44.3  41.8    85   SSW   2.7   3.6      0  0.00  0.00   46.1  49.2
  09/17/18 0100  46.9  44.8  41.8    82   SSW   2.0   3.4      0  0.00  0.00   46.9  49.2
  09/17/18 0000  48.6  46.2  42.9    81   SSW   2.2   3.1      0  0.00  0.00   40.1  79.4
  09/16/18 2300  50.3  47.5  43.9    79     S   0.5   2.9      0  0.00  0.00   40.1  79.4
  09/16/18 2200  54.0  49.7  44.8    71   SSE   0.1   2.6      0  0.00  0.00   40.1  79.4
  09/16/18 2100  59.7  53.1  46.9    62    SE   1.0   5.9      0  0.00  0.00   40.1  79.4
  09/16/18 2000  63.1  54.6  47.4    56    SW   4.2   9.5      3  0.00  0.00   40.1  79.4
  09/16/18 1900  66.8  56.2  48.0    51   WSW   5.8  13.3    118  0.00  0.00   40.1  79.4
  09/16/18 1800  73.9  57.1  45.8    37   WSW   5.5  12.5    323  0.00  0.00   40.1  79.4
  09/16/18 1700  77.9  54.3  36.5    22   WSW   4.4  12.5    524  0.00  0.00   40.1  79.4
  09/16/18 1600  76.5  53.9  36.5    23    SW   3.5   8.8    693  0.00  0.00   40.1  77.8
  09/16/18 1500  77.3  54.4  37.1    23     N   4.6  10.8    814  0.00  0.00   40.1  77.5
  09/16/18 1400  73.2  54.2  39.7    30   NNE   4.1   8.9    878  0.00  0.00   40.1  74.3
  09/16/18 1300  71.2  52.5  36.8    28    NE   3.7   9.5    879  0.00  0.00   40.1  72.1
  09/16/18 1200  69.6  52.5  38.3    32   NNE   3.2   7.6    808  0.00  0.00   40.1  69.6
  09/16/18 1100  65.1  52.4  41.7    42   NNE   2.3   8.1    679  0.00  0.00   40.1  65.7
  09/16/18 1000  62.0  51.7  42.5    49    NE   1.4   5.6    504  0.00  0.00   40.1  62.0
  09/16/18 0900  58.7  51.0  43.6    57     S   1.3   3.8    302  0.00  0.00   40.1  58.7
  09/16/18 0800  46.9  44.8  41.8    82     S   2.7   4.8     89  0.00  0.00   40.1  48.3
  09/16/18 0700  40.6  39.6  38.1    91     S   1.5   3.8      1  0.00  0.00   40.1  48.3
  09/16/18 0600  41.9  40.8  38.9    89     S   2.3   4.1      0  0.00  0.00   41.3  48.3
  09/16/18 0500  41.8  40.6  38.8    89     S   2.9   4.3      0  0.00  0.00   41.8  48.3
  09/16/18 0400  42.1  40.8  38.7    88   SSW   1.8   3.8      0  0.00  0.00   42.1  48.3
  09/16/18 0300  42.8  41.1  38.7    86   SSW   2.2   3.8      0  0.00  0.00   42.5  48.3
  09/16/18 0200  43.0  41.4  39.0    86   SSW   1.6   3.4      0  0.00  0.00   43.0  48.3
  09/16/18 0100  45.9  44.1  41.4    84     S   1.6   3.9      0  0.00  0.00   45.8  48.3
  09/16/18 0000  48.2  45.7  42.3    80     S   1.1   3.4      0  0.00  0.00   47.2  73.3
  09/15/18 2300  49.4  45.8  41.5    74   SSW   1.4   5.4      0  0.00  0.00   49.3  73.3
  09/15/18 2200  54.3  49.4  44.0    68     W   1.8   8.3      0  0.00  0.00   49.6  73.3
  09/15/18 2100  57.3  50.4  43.6    60     W   2.1   8.4      0  0.00  0.00   49.6  73.3
  09/15/18 2000  59.2  51.7  44.7    59   WSW   4.0   9.3      4  0.00  0.00   49.6  73.3
  09/15/18 1900  63.4  52.1  42.2    46   WSW   5.6  11.1    127  0.00  0.00   49.6  73.3
  09/15/18 1800  67.8  53.0  40.8    37   WSW   7.8  13.5    336  0.00  0.00   49.6  73.3
  09/15/18 1700  71.1  53.7  40.0    32   WSW   7.3  14.7    536  0.00  0.00   49.6  73.3
  09/15/18 1600  71.9  53.9  39.9    31   WSW   6.7  13.2    707  0.00  0.00   49.6  73.3
  09/15/18 1500  72.2  53.0  37.3    28    SW   7.0  11.8    832  0.00  0.00   49.6  72.9
  09/15/18 1400  72.0  53.3  38.4    29    SW   6.0  12.1    892  0.00  0.00   49.6  72.0
  09/15/18 1300  70.2  52.6  38.1    31   WSW   7.4  13.8    886  0.00  0.00   49.6  71.0
  09/15/18 1200  68.3  52.3  38.7    34   WSW   7.7  13.8    814  0.00  0.00   49.6  68.7
  09/15/18 1100  67.7  51.6  37.5    33    SW   4.8  14.2    683  0.00  0.00   49.6  67.7
  09/15/18 1000  63.4  51.6  41.2    44   WSW   5.1  10.0    507  0.00  0.00   49.6  63.4
  09/15/18 0900  59.9  50.3  41.1    50   WSW   3.8   9.5    304  0.00  0.00   49.6  59.9
  09/15/18 0800  55.4  49.7  43.8    65    SW   2.8   8.8     73  0.00  0.00   49.6  55.4
  09/15/18 0700  50.0  46.5  42.1    74    SW   1.0   5.1      1  0.00  0.00   49.6  54.7
  09/15/18 0600  54.4  48.7  42.6    64   SSW   2.1   6.4      0  0.00  0.00   49.6  54.7
  09/15/18 0500  49.8  45.1  39.5    68     S   1.7   3.4      0  0.00  0.00   49.6  54.7
  09/15/18 0400  51.1  45.9  39.9    65   SSW   0.8   2.7      0  0.00  0.00   51.0  54.7
  09/15/18 0300  54.5  47.9  40.8    60   SSW   0.4   2.7      0  0.00  0.00   52.1  54.7
  09/15/18 0200  53.9  47.1  39.8    59   SSW   1.3   3.4      0  0.00  0.00   52.1  54.7
  09/15/18 0100  54.6  47.5  40.0    58   SSW   0.6   2.6      0  0.00  0.00   52.1  54.7
  09/15/18 0000  52.1  46.4  39.9    63   SSW   0.1   2.2      0  0.00  0.00   40.6  79.3
  09/14/18 2300  54.2  47.5  40.4    59    SW   0.2   2.2      0  0.00  0.00   40.6  79.3
  09/14/18 2200  57.1  48.1  38.9    51   SSW   1.5   5.6      0  0.00  0.00   40.6  79.3
  09/14/18 2100  60.6  49.3  38.4    44    SW   1.6   7.4      0  0.00  0.00   40.6  79.3
  09/14/18 2000  62.9  50.5  39.1    41   WSW   4.9  10.3      8  0.00  0.00   40.6  79.3
  09/14/18 1900  66.5  52.4  40.6    39   WSW   6.6  13.3    144  0.00  0.00   40.6  79.3
  09/14/18 1800  72.1  54.6  41.5    33   WSW   7.4  13.7    286  0.00  0.00   40.6  79.3
  09/14/18 1700  76.2  54.5  38.3    25   WSW   5.2  11.5    527  0.00  0.00   40.6  79.3
  09/14/18 1600  78.3  54.8  37.5    23    SW   4.6  13.0    741  0.00  0.00   40.6  79.0
  09/14/18 1500  77.5  54.8  38.0    24   WSW   4.2  11.5    814  0.00  0.00   40.6  77.9
  09/14/18 1400  76.6  53.8  36.0    23     W   2.9   7.9    772  0.00  0.00   40.6  76.6
  09/14/18 1300  74.5  53.1  35.7    24     N   5.5  12.1    895  0.00  0.00   40.6  74.5
  09/14/18 1200  71.1  53.1  38.6    31   NNE   4.4  10.8    833  0.00  0.00   40.6  71.3
  09/14/18 1100  68.4  54.6  44.1    41   NNE   1.9   6.3    702  0.00  0.00   40.6  68.4
  09/14/18 1000  62.1  52.6  44.3    52   NNE   1.0   5.3    511  0.00  0.00   40.6  62.8
  09/14/18 0900  58.8  52.3  46.1    63     N   0.0   0.0    304  0.00  0.00   40.6  58.8
  09/14/18 0800  47.3  45.1  41.9    81     N   0.0   0.0     83  0.00  0.00   40.6  47.3
  09/14/18 0700  40.9  39.9  38.2    90     N   0.0   0.0      1  0.00  0.00   40.6  46.9
  09/14/18 0600  41.0  39.9  38.2    90     N   0.0   0.0      0  0.00  0.00   41.0  46.9
  09/14/18 0500  41.7  40.6  38.8    89     N   0.0   0.0      0  0.00  0.00   41.7  46.9
  09/14/18 0400  42.4  41.0  39.0    88     N   0.0   0.0      0  0.00  0.00   42.3  46.9
  09/14/18 0300  43.0  41.4  39.0    86   SSW   0.8   4.1      0  0.00  0.00   43.0  46.9
  09/14/18 0200  44.6  42.7  39.9    84     S   2.4   3.8      0  0.00  0.00   44.6  46.9
  09/14/18 0100  45.7  43.7  40.9    83   SSW   1.7   3.1      0  0.00  0.00   45.2  46.9
  09/14/18 0000  46.9  44.6  41.5    82   SSW   1.5   3.6      0  0.00  0.00   44.9  74.8
  09/13/18 2300  50.9  48.0  44.2    78   SSE   0.2   3.1      0  0.00  0.00   44.9  74.8
  09/13/18 2200  54.4  49.9  45.0    70   SSW   1.2   5.6      0  0.00  0.00   44.9  74.8
  09/13/18 2100  57.9  51.5  45.3    63    SW   3.5   7.6      0  0.00  0.00   44.9  74.8
  09/13/18 2000  60.9  53.3  46.4    59     W   4.1   8.1      5  0.00  0.00   44.9  74.8
  09/13/18 1900  64.9  54.6  46.3    51   WSW   5.3  12.0    132  0.00  0.00   44.9  74.8
  09/13/18 1800  70.6  55.3  44.0    38   WSW   7.0  14.3    338  0.00  0.00   44.9  74.8
  09/13/18 1700  73.8  54.3  39.5    29   WSW   5.1  11.1    540  0.00  0.00   44.9  74.8
  09/13/18 1600  73.5  53.8  38.5    28   WNW   4.9  10.8    709  0.00  0.00   44.9  74.8
  09/13/18 1500  73.8  52.9  35.7    25     W   5.8  13.0    835  0.00  0.00   44.9  74.5
  09/13/18 1400  72.7  51.8  33.5    24   WSW   5.4  11.1    899  0.00  0.00   44.9  73.6
  09/13/18 1300  72.3  51.7  33.5    24   WSW   5.0  11.5    897  0.00  0.00   44.9  72.4
  09/13/18 1200  69.6  52.5  38.2    32     W   3.8  14.5    820  0.00  0.00   44.9  70.1
  09/13/18 1100  66.5  53.0  41.9    41   ENE   1.5   7.6    690  0.00  0.00   44.9  66.8
  09/13/18 1000  61.4  52.0  43.5    52   NNE   0.4   6.1    514  0.00  0.00   44.9  63.1
  09/13/18 0900  58.6  51.0  43.9    58    NE   0.3   4.3    310  0.00  0.00   44.9  58.7
  09/13/18 0800  51.8  48.4  44.2    75     N   0.0   0.0     91  0.00  0.00   44.9  56.3
  09/13/18 0700  46.3  44.9  42.7    87     N   0.0   0.0      1  0.00  0.00   45.9  56.3
  09/13/18 0600  50.5  47.8  44.2    79   SSW   0.1   2.9      0  0.00  0.00   50.4  56.3
  09/13/18 0500  52.6  49.0  44.8    75    SW   1.9   7.4      0  0.00  0.00   52.0  56.3
  09/13/18 0400  53.1  49.2  44.7    73    SW   0.6   4.9      0  0.00  0.00   53.1  56.3
  09/13/18 0300  54.8  50.2  45.2    70    SW   2.1   6.1      0  0.00  0.00   54.7  56.3
  09/13/18 0200  55.5  50.6  45.5    69    SW   1.1   4.8      0  0.00  0.00   55.4  56.3
  09/13/18 0100  55.5  50.5  45.1    68    SW   1.8   5.3      0  0.00  0.00   55.5  56.3
  09/13/18 0000  56.1  50.6  45.0    66    SW   3.1   7.1      0  0.00  0.00   42.5  73.5
  09/12/18 2300  56.4  50.9  45.2    66    SW   3.6   7.4      0  0.00  0.00   42.5  73.5
  09/12/18 2200  56.7  50.9  45.0    65    SW   3.0   6.3      0  0.00  0.00   42.5  73.5
  09/12/18 2100  58.2  51.1  44.2    60   WSW   3.8   7.6      0  0.00  0.00   42.5  73.5
  09/12/18 2000  59.6  51.4  43.8    56     W   3.1   7.6      9  0.00  0.00   42.5  73.5
  09/12/18 1900  62.6  53.1  44.9    52     W   4.7  10.6     66  0.00  0.00   42.5  73.5
  09/12/18 1800  65.0  54.3  45.6    49   WSW   8.3  14.8    224  0.00  0.00   42.5  73.5
  09/12/18 1700  69.2  55.5  45.4    42   WSW   7.8  14.0    446  0.00  0.00   42.5  73.5
  09/12/18 1600  70.6  55.3  44.0    38   WSW   7.6  15.0    415  0.00  0.00   42.5  73.5
  09/12/18 1500  71.4  53.7  39.8    32   WSW   7.7  13.3    670  0.00  0.00   42.5  73.5
  09/12/18 1400  72.7  54.3  40.3    31   WSW   7.5  12.8    761  0.00  0.00   42.5  72.8
  09/12/18 1300  70.8  54.3  41.7    35   WNW   5.2  14.3    808  0.00  0.00   42.5  71.3
  09/12/18 1200  68.9  54.5  43.3    39   WNW   3.3  10.3    810  0.00  0.00   42.5  69.5
  09/12/18 1100  64.8  53.9  45.0    49   NNE   3.9   8.6    686  0.00  0.00   42.5  64.8
  09/12/18 1000  62.7  52.1  42.7    48   ESE   1.5   5.1    488  0.00  0.00   42.5  62.7
  09/12/18 0900  57.0  49.9  42.9    59     S   0.8   3.9    238  0.00  0.00   42.5  57.1
  09/12/18 0800  47.8  44.8  40.9    77   SSW   0.3   3.6     67  0.00  0.00   42.5  55.0
  09/12/18 0700  43.0  41.3  38.8    85   SSW   0.7   3.6      2  0.00  0.00   42.5  55.0
  09/12/18 0600  45.2  43.1  40.2    83     S   0.5   4.3      0  0.00  0.00   45.0  55.0
  09/12/18 0500  45.7  43.5  40.5    82    SE   0.2   3.3      0  0.00  0.00   45.5  55.0
  09/12/18 0400  51.2  46.6  41.4    69   WSW   3.2   7.3      0  0.00  0.00   50.0  55.0
  09/12/18 0300  51.6  46.7  41.0    67   SSW   3.2   5.8      0  0.00  0.00   50.0  55.0
  09/12/18 0200  50.1  45.9  40.9    70    SW   2.6   6.4      0  0.00  0.00   50.0  55.0
  09/12/18 0100  54.0  47.8  41.0    61    SW   3.9   8.6      0  0.00  0.00   54.0  55.0
  09/12/18 0000  54.8  48.2  41.3    60    SW   3.0   6.4      0  0.00  0.00   44.9  83.3
  09/11/18 2300  57.5  49.7  42.0    56   WSW   3.0   8.6      0  0.00  0.00   44.9  83.3
  09/11/18 2200  59.5  50.3  41.6    52    SW   4.2   7.6      0  0.00  0.00   44.9  83.3
  09/11/18 2100  61.9  51.3  41.7    47   SSW   4.9   8.1      0  0.00  0.00   44.9  83.3
  09/11/18 2000  64.3  52.0  41.5    43    SW   5.6  10.8      7  0.00  0.00   44.9  83.3
  09/11/18 1900  69.0  53.0  40.1    35   WSW   4.7  11.0    137  0.00  0.00   44.9  83.3
  09/11/18 1800  74.2  54.1  38.8    28   WSW   7.3  14.8    358  0.00  0.00   44.9  83.3
  09/11/18 1700  77.4  55.5  40.1    26   WSW   7.7  12.8    542  0.00  0.00   44.9  83.3
  09/11/18 1600  80.8  55.4  37.4    21   WSW   8.9  16.2    721  0.00  0.00   44.9  83.3
  09/11/18 1500  83.2  53.3  28.0    13   WSW   8.3  14.0    854  0.00  0.00   44.9  83.3
  09/11/18 1400  81.4  53.0  28.8    15   WSW   9.3  15.0    908  0.00  0.00   44.9  82.5
  09/11/18 1300  80.4  52.9  29.4    16   WSW   8.2  14.5    901  0.00  0.00   44.9  80.9
  09/11/18 1200  79.0  53.5  32.8    19   WSW   5.4  11.0    827  0.00  0.00   44.9  79.0
  09/11/18 1100  76.9  54.3  37.1    24   NNW   1.6  10.0    700  0.00  0.00   44.9  77.0
  09/11/18 1000  70.9  54.0  40.9    34   NNE   0.1   2.7    525  0.00  0.00   44.9  70.9
  09/11/18 0900  63.6  53.9  45.7    52   ENE   1.1   4.3    321  0.00  0.00   44.9  63.6
  09/11/18 0800  51.2  44.1  35.6    55     S   2.6   5.1     94  0.00  0.00   44.9  57.2
  09/11/18 0700  45.8  40.8  34.3    64     S   3.6   5.4      2  0.00  0.00   44.9  57.2
  09/11/18 0600  45.3  40.8  34.8    66     S   2.3   4.8      0  0.00  0.00   44.9  57.2
  09/11/18 0500  46.8  41.8  35.4    64     S   2.9   4.8      0  0.00  0.00   46.5  57.2
  09/11/18 0400  47.9  43.1  37.0    66     S   3.0   4.1      0  0.00  0.00   47.9  57.2
  09/11/18 0300  50.5  45.0  38.6    64     S   3.1   5.1      0  0.00  0.00   50.5  57.2
  09/11/18 0200  52.0  46.0  39.2    62     S   2.3   3.8      0  0.00  0.00   51.5  57.2
  09/11/18 0100  53.4  47.6  41.3    63     S   1.9   3.9      0  0.00  0.00   53.4  57.2
  09/11/18 0000  56.5  49.0  41.3    57     S   0.9   3.1      0  0.00  0.00   43.9  91.3
  09/10/18 2300  58.7  49.6  40.8    51   SSE   1.7   4.6      0  0.00  0.00   43.9  91.3
  09/10/18 2200  65.8  52.2  40.7    40   SSW   3.6   7.9      0  0.00  0.00   43.9  91.3
  09/10/18 2100  68.7  55.9  46.5    45    SW   4.7   7.9      0  0.00  0.00   43.9  91.3
  09/10/18 2000  71.8  56.9  46.7    41   SSW   3.2   8.9      7  0.00  0.00   43.9  91.3
  09/10/18 1900  77.7  57.6  44.8    31    SW   4.3   9.8    156  0.00  0.00   43.9  91.3
  09/10/18 1800  83.1  57.9  42.5    24   WSW   7.9  14.0    363  0.00  0.00   43.9  91.3
  09/10/18 1700  86.6  57.6  39.8    19   WSW   8.8  16.5    558  0.00  0.00   43.9  91.3
  09/10/18 1600  89.5  56.2  33.5    14   WSW   8.3  14.5    724  0.00  0.00   43.9  91.3
  09/10/18 1500  89.3  56.5  34.8    15     W   6.7  19.2    848  0.00  0.00   43.9  91.3
  09/10/18 1400  89.4  55.9  32.3    13    NE   3.3   8.4    906  0.00  0.00   43.9  89.4
  09/10/18 1300  83.6  57.5  41.3    22   NNE   3.8   7.6    901  0.00  0.00   43.9  83.7
  09/10/18 1200  80.4  56.8  41.4    25   NNE   2.8   8.6    828  0.00  0.00   43.9  81.0
  09/10/18 1100  75.0  54.8  39.9    28   NNE   2.3   6.1    700  0.00  0.00   43.9  75.4
  09/10/18 1000  70.0  55.1  44.1    39   NNE   0.3   4.9    530  0.00  0.00   43.9  70.4
  09/10/18 0900  66.6  54.1  44.1    44     N   0.0   0.0    325  0.00  0.00   43.9  66.6